Time;durP1;ratioP1;P1;durP2;ratioP2;P2;SDS_P1;SDS_P2;PMS_P1;PMS_P2;Temp;Humidity;BMP_temperature;BMP_pressure;BME280_temperature;BME280_humidity;BME280_pressure;Samples;Min_cycle;Max_cycle;Signal;HPM_P1;HPM_P2
2021/03/07 00:00:58;;;;;;;8.68;5.00;;;;;;;6.10;39.75;101505.61;1747385;82;21191;-81
2021/03/07 00:03:28;;;;;;;10.20;5.17;;;;;;;6.07;39.84;101504.47;1748487;82;21140;-74
2021/03/07 00:05:55;;;;;;;8.73;5.03;;;;;;;6.06;39.77;101505.44;1750749;80;21160;-75
2021/03/07 00:08:23;;;;;;;9.05;4.60;;;;;;;6.02;39.69;101506.59;1724030;82;21626;-78
2021/03/07 00:10:51;;;;;;;8.28;4.95;;;;;;;6.00;39.75;101501.02;1748186;82;21120;-77
2021/03/07 00:13:19;;;;;;;7.12;4.35;;;;;;;5.97;39.71;101494.09;1774408;80;21667;-80
2021/03/07 00:15:46;;;;;;;7.58;4.67;;;;;;;5.96;39.78;101495.05;1757115;80;21190;-79
2021/03/07 00:18:13;;;;;;;;;;;;;;;5.95;39.67;101488.03;1766186;81;21178;-76
2021/03/07 00:20:41;;;;;;;9.13;5.12;;;;;;;5.92;39.66;101484.72;1763442;80;20310;-75
2021/03/07 00:23:08;;;;;;;9.18;4.62;;;;;;;5.89;39.69;101481.74;1763459;81;21493;-78
2021/03/07 00:25:36;;;;;;;8.70;5.10;;;;;;;5.87;39.65;101478.35;1763495;80;21214;-77
2021/03/07 00:28:04;;;;;;;8.43;4.78;;;;;;;5.84;39.53;101478.55;1763648;81;21676;-76
2021/03/07 00:30:31;;;;;;;8.95;4.72;;;;;;;5.80;39.58;101478.38;1763854;81;21202;-79
2021/03/07 00:32:59;;;;;;;7.90;4.30;;;;;;;5.78;39.66;101472.32;1740883;81;21130;-77
2021/03/07 00:35:27;;;;;;;11.50;5.25;;;;;;;5.75;39.72;101476.02;1765179;80;21145;-79
2021/03/07 00:37:54;;;;;;;7.55;4.22;;;;;;;5.76;39.70;101471.55;1765228;81;21199;-76
2021/03/07 00:40:22;;;;;;;7.70;4.75;;;;;;;5.74;39.67;101467.67;1749469;80;21128;-76
2021/03/07 00:42:50;;;;;;;8.38;5.28;;;;;;;5.73;39.62;101469.97;1772169;80;21144;-81
2021/03/07 00:45:18;;;;;;;11.78;5.12;;;;;;;5.75;39.53;101463.21;1771979;78;21141;-75
2021/03/07 00:47:46;;;;;;;8.90;5.30;;;;;;;5.75;39.50;101461.88;1771136;81;21169;-82
2021/03/07 00:50:21;;;;;;;7.78;4.70;;;;;;;5.74;39.59;101455.72;1771094;81;21509;-77
2021/03/07 00:52:50;;;;;;;9.05;5.37;;;;;;;5.74;39.58;101457.53;1770923;81;21133;-79
2021/03/07 00:55:18;;;;;;;8.50;5.05;;;;;;;5.71;39.59;101444.43;1717546;82;21125;-79
2021/03/07 00:57:46;;;;;;;10.82;4.95;;;;;;;5.71;39.54;101447.09;1771155;81;21635;-78
2021/03/07 01:00:16;;;;;;;8.15;4.92;;;;;;;5.69;39.57;101439.70;1771190;81;21147;-78
2021/03/07 01:02:44;;;;;;;11.03;6.00;;;;;;;5.67;39.57;101437.13;1771410;81;21168;-77
2021/03/07 01:05:14;;;;;;;19.57;10.13;;;;;;;5.69;39.53;101431.73;1772036;81;21079;-76
2021/03/07 01:07:41;;;;;;;13.28;7.95;;;;;;;5.67;39.51;101422.99;1771390;81;21184;-82
2021/03/07 01:10:18;;;;;;;12.03;6.55;;;;;;;5.65;39.52;101425.77;1771031;81;21135;-78
2021/03/07 01:12:47;;;;;;;11.18;6.03;;;;;;;5.65;39.60;101419.59;1771743;81;21183;-75
2021/03/07 01:15:16;;;;;;;13.95;6.90;;;;;;;5.64;39.57;101413.44;1773005;81;21150;-80
2021/03/07 01:17:44;;;;;;;12.82;6.90;;;;;;;5.62;39.55;101412.67;1771514;81;21612;-81
2021/03/07 01:20:16;;;;;;;12.23;6.40;;;;;;;5.63;39.59;101409.53;1771263;81;21043;-77
2021/03/07 01:22:45;;;;;;;16.35;9.35;;;;;;;5.62;39.66;101400.71;1770049;81;21154;-78
2021/03/07 01:25:12;;;;;;;24.57;14.50;;;;;;;5.59;39.68;101400.45;1771235;81;21123;-77
2021/03/07 01:27:40;;;;;;;33.67;20.48;;;;;;;5.57;39.76;101401.02;1773683;81;21052;-74
2021/03/07 01:30:09;;;;;;;38.40;22.75;;;;;;;5.54;39.80;101405.68;1774801;81;21091;-74
2021/03/07 01:32:37;;;;;;;31.12;17.65;;;;;;;5.50;39.72;101386.45;1774644;81;21142;-74
2021/03/07 01:35:06;;;;;;;24.18;14.53;;;;;;;5.51;39.72;101386.83;1774672;81;21153;-74
2021/03/07 01:37:34;;;;;;;16.97;9.70;;;;;;;5.50;39.68;101391.77;1774411;79;21123;-74
2021/03/07 01:40:05;;;;;;;18.70;10.05;;;;;;;5.48;39.68;101386.17;1774535;81;21498;-75
2021/03/07 01:42:32;;;;;;;14.25;7.05;;;;;;;5.45;39.64;101387.69;1774730;81;21490;-74
2021/03/07 01:45:00;;;;;;;11.93;6.47;;;;;;;5.43;39.70;101381.64;1774428;81;21028;-75
2021/03/07 01:47:32;;;;;;;8.28;4.78;;;;;;;5.41;39.73;101387.07;1767650;81;21115;-74
2021/03/07 01:50:02;;;;;;;10.13;6.60;;;;;;;5.39;39.75;101388.96;1772749;81;21083;-75
2021/03/07 01:52:30;;;;;;;11.55;5.53;;;;;;;5.38;39.78;101381.95;1772814;81;21136;-79
2021/03/07 01:54:58;;;;;;;10.55;6.28;;;;;;;5.37;39.68;101381.59;1748997;81;21120;-79
2021/03/07 01:57:25;;;;;;;8.43;5.00;;;;;;;5.37;39.74;101378.08;1772788;81;21121;-79
2021/03/07 01:59:54;;;;;;;10.93;7.05;;;;;;;5.35;39.78;101378.16;1772744;81;21456;-78
2021/03/07 02:02:21;;;;;;;13.25;6.90;;;;;;;5.34;39.80;101373.81;1773311;81;21063;-76
2021/03/07 02:04:49;;;;;;;13.45;7.17;;;;;;;5.32;39.86;101371.74;1773318;81;21037;-78
2021/03/07 02:07:17;;;;;;;10.70;5.62;;;;;;;5.32;39.90;101367.28;1772756;81;21646;-76
2021/03/07 02:09:45;;;;;;;10.63;6.10;;;;;;;5.34;39.83;101372.48;1771453;81;21168;-81
2021/03/07 02:12:13;;;;;;;9.50;6.22;;;;;;;5.33;39.81;101371.63;1770497;80;22236;-77
2021/03/07 02:14:40;;;;;;;12.78;6.90;;;;;;;5.32;39.84;101366.44;1757481;80;21186;-78
2021/03/07 02:17:08;;;;;;;11.88;6.70;;;;;;;5.32;39.90;101363.78;1775997;80;21142;-78
2021/03/07 02:19:38;;;;;;;12.33;6.80;;;;;;;5.30;39.94;101359.88;1775912;80;21070;-80
2021/03/07 02:22:12;;;;;;;13.05;7.67;;;;;;;5.27;39.92;101361.42;1742822;80;39157;-80
2021/03/07 02:24:39;;;;;;;14.60;8.38;;;;;;;5.27;39.86;101358.77;1776068;80;21137;-79
2021/03/07 02:27:07;;;;;;;12.45;8.20;;;;;;;5.23;39.90;101363.06;1776022;80;21210;-81
2021/03/07 02:29:34;;;;;;;12.20;7.42;;;;;;;5.21;39.84;101364.95;1719546;80;21178;-78
2021/03/07 02:32:07;;;;;;;12.03;6.65;;;;;;;5.19;39.90;101361.55;1719298;80;21588;-79
2021/03/07 02:34:38;;;;;;;10.75;7.60;;;;;;;5.19;39.98;101357.58;1775799;80;21129;-78
2021/03/07 02:37:10;;;;;;;17.70;9.25;;;;;;;5.18;40.01;101362.48;1778482;80;21185;-81
2021/03/07 02:39:41;;;;;;;17.05;10.10;;;;;;;5.17;39.94;101359.46;1788476;80;21157;-81
2021/03/07 02:42:12;;;;;;;15.38;9.10;;;;;;;5.20;39.94;101359.27;1787897;80;21192;-79
2021/03/07 02:44:54;;;;;;;19.65;11.05;;;;;;;5.21;39.91;101363.63;1754778;80;21600;-83
2021/03/07 02:47:22;;;;;;;16.20;9.15;;;;;;;5.21;39.84;101360.97;1788674;80;21173;-79
2021/03/07 02:49:51;;;;;;;18.32;9.65;;;;;;;5.20;39.88;101364.10;1771444;81;21486;-79
2021/03/07 02:52:19;;;;;;;16.32;9.63;;;;;;;5.22;39.89;101361.33;1771351;81;21162;-77
2021/03/07 02:54:47;;;;;;;20.32;11.35;;;;;;;5.21;39.91;101365.80;1779050;79;21157;-77
2021/03/07 02:57:14;;;;;;;15.85;9.95;;;;;;;5.20;39.83;101357.94;1723442;81;21586;-79
2021/03/07 02:59:42;;;;;;;19.05;10.82;;;;;;;5.16;39.85;101358.61;1778916;79;21129;-77
2021/03/07 03:02:10;;;;;;;17.48;10.78;;;;;;;5.14;39.85;101347.73;1747778;81;21158;-80
2021/03/07 03:04:38;;;;;;;16.30;10.25;;;;;;;5.13;39.81;101350.84;1802965;79;21146;-77
2021/03/07 03:07:07;;;;;;;15.15;8.83;;;;;;;5.13;39.76;101340.22;1747623;80;21147;-79
2021/03/07 03:09:34;;;;;;;16.15;8.60;;;;;;;5.13;39.65;101340.69;1778401;79;21600;-79
2021/03/07 03:12:02;;;;;;;14.25;8.40;;;;;;;5.11;39.74;101344.79;1747691;81;21683;-78
2021/03/07 03:14:30;;;;;;;13.90;8.30;;;;;;;5.11;39.74;101343.94;1784782;79;21048;-81
2021/03/07 03:17:00;;;;;;;14.50;9.15;;;;;;;5.04;39.78;101337.72;1740556;82;21129;-80
2021/03/07 03:19:28;;;;;;;15.75;9.73;;;;;;;5.01;39.81;101333.08;1782866;80;21107;-75
2021/03/07 03:21:56;;;;;;;15.48;9.13;;;;;;;5.00;39.82;101333.56;1764377;80;21087;-76
2021/03/07 03:24:24;;;;;;;17.85;10.95;;;;;;;4.99;39.80;101329.66;1784324;79;21154;-82
2021/03/07 03:27:01;;;;;;;15.95;9.65;;;;;;;5.01;39.82;101334.41;1782940;80;21118;-82
2021/03/07 03:29:30;;;;;;;19.42;11.30;;;;;;;5.00;39.76;101330.91;1762206;80;21134;-77
2021/03/07 03:31:59;;;;;;;18.02;11.43;;;;;;;4.98;39.78;101319.52;1782125;79;21126;-79
2021/03/07 03:34:26;;;;;;;19.42;12.23;;;;;;;4.99;39.69;101304.44;1782052;80;21608;-81
2021/03/07 03:36:54;;;;;;;24.37;15.58;;;;;;;4.99;39.61;101302.63;1782001;80;21177;-82
2021/03/07 03:39:23;;;;;;;26.20;16.15;;;;;;;4.99;39.54;101301.78;1781907;80;21094;-78
2021/03/07 03:41:56;;;;;;;27.52;15.53;;;;;;;4.97;39.58;101298.39;1782169;80;21190;-79
2021/03/07 03:44:27;;;;;;;20.35;13.35;;;;;;;4.96;39.59;101295.37;1768394;80;21433;-80
2021/03/07 03:46:56;;;;;;;14.98;9.23;;;;;;;4.94;39.58;101300.76;1773390;79;21170;-77
2021/03/07 03:49:29;;;;;;;14.05;8.30;;;;;;;4.92;39.59;101299.17;1777739;79;21197;-80
2021/03/07 03:52:02;;;;;;;11.12;7.12;;;;;;;4.89;39.61;101296.71;1802078;79;21170;-77
2021/03/07 03:54:32;;;;;;;11.88;6.67;;;;;;;4.86;39.66;101294.25;1770470;81;21189;-77
2021/03/07 03:56:59;;;;;;;11.60;7.58;;;;;;;4.82;39.69;101297.13;1759361;81;21170;-78
2021/03/07 03:59:28;;;;;;;9.93;6.67;;;;;;;4.83;39.63;101286.03;1787645;80;21671;-78
2021/03/07 04:01:58;;;;;;;10.75;7.03;;;;;;;4.84;39.56;101281.94;1787656;80;21197;-79
2021/03/07 04:04:27;;;;;;;11.88;6.55;;;;;;;4.84;39.53;101271.80;1788641;80;21164;-82
2021/03/07 04:06:55;;;;;;;10.18;6.40;;;;;;;4.83;39.53;101260.33;1788895;80;21157;-79
2021/03/07 04:09:22;;;;;;;12.20;6.70;;;;;;;4.81;39.48;101256.06;1789073;80;21097;-78
2021/03/07 04:11:50;;;;;;;10.15;6.60;;;;;;;4.75;39.45;101253.83;1789074;80;21085;-80
2021/03/07 04:14:18;;;;;;;13.55;7.53;;;;;;;4.74;39.54;101253.45;1774051;80;21140;-81
2021/03/07 04:16:48;;;;;;;11.35;7.30;;;;;;;4.74;39.51;101247.67;1758821;80;21200;-81
2021/03/07 04:19:16;;;;;;;15.05;7.83;;;;;;;4.82;39.37;101248.50;1772787;80;21176;-81
2021/03/07 04:21:44;;;;;;;13.60;7.03;;;;;;;4.79;39.28;101247.36;1783471;80;21201;-79
2021/03/07 04:24:12;;;;;;;14.80;8.55;;;;;;;4.80;39.23;101245.08;1783208;80;21137;-79
2021/03/07 04:26:40;;;;;;;11.22;7.28;;;;;;;4.79;39.18;101249.54;1782563;80;21157;-78
2021/03/07 04:29:08;;;;;;;9.63;6.83;;;;;;;4.79;39.21;101246.04;1782583;80;21640;-77
2021/03/07 04:31:36;;;;;;;9.50;6.33;;;;;;;4.79;39.14;101242.06;1782713;80;21177;-78
2021/03/07 04:34:04;;;;;;;13.05;7.25;;;;;;;4.79;39.12;101235.42;1758217;80;21165;-79
2021/03/07 04:36:32;;;;;;;10.48;7.28;;;;;;;4.79;38.99;101238.92;1782017;80;21177;-80
2021/03/07 04:39:00;;;;;;;14.03;9.20;;;;;;;4.74;39.07;101242.36;1781932;80;21201;-80
2021/03/07 04:41:27;;;;;;;13.62;8.75;;;;;;;4.74;39.09;101238.38;1762469;80;21708;-78
2021/03/07 04:43:56;;;;;;;17.07;8.75;;;;;;;4.72;39.03;101230.13;1751984;80;21175;-78
2021/03/07 04:46:25;;;;;;;14.25;7.80;;;;;;;4.70;39.08;101236.03;1729420;82;21199;-77
2021/03/07 04:48:54;;;;;;;13.90;8.68;;;;;;;4.67;39.07;101225.61;1751854;82;21702;-81
2021/03/07 04:51:23;;;;;;;14.83;8.20;;;;;;;4.65;39.16;101224.88;1752230;82;21187;-76
2021/03/07 04:53:51;;;;;;;16.07;8.00;;;;;;;4.65;39.06;101219.09;1752132;82;21179;-75
2021/03/07 04:56:19;;;;;;;19.52;11.53;;;;;;;4.64;39.04;101211.23;1752148;82;21147;-79
2021/03/07 04:58:46;;;;;;;20.12;11.33;;;;;;;4.64;39.12;101220.05;1752053;82;21160;-76
2021/03/07 05:01:14;;;;;;;18.20;10.00;;;;;;;4.67;39.05;101210.53;1752358;81;21211;-75
2021/03/07 05:03:42;;;;;;;17.17;8.83;;;;;;;4.67;39.08;101205.70;1752190;82;21567;-81
2021/03/07 05:06:11;;;;;;;16.85;9.83;;;;;;;4.69;39.02;101198.52;1752122;82;21511;-81
2021/03/07 05:08:40;;;;;;;12.70;8.10;;;;;;;4.73;38.92;101197.36;1765635;80;21158;-79
2021/03/07 05:11:07;;;;;;;12.90;7.83;;;;;;;4.74;38.92;101197.24;1768896;81;21169;-79
2021/03/07 05:13:35;;;;;;;12.07;7.50;;;;;;;4.75;38.81;101187.00;1767945;81;21122;-78
2021/03/07 05:16:03;;;;;;;11.53;7.97;;;;;;;4.75;38.75;101179.52;1786670;79;21146;-81
2021/03/07 05:18:31;;;;;;;15.50;8.75;;;;;;;4.76;38.75;101180.73;1775315;80;21089;-79
2021/03/07 05:20:58;;;;;;;14.25;7.97;;;;;;;4.80;38.65;101178.24;1775758;80;21153;-83
2021/03/07 05:23:26;;;;;;;10.48;7.00;;;;;;;4.82;38.65;101178.16;1775317;80;21193;-78
2021/03/07 05:25:54;;;;;;;10.72;7.08;;;;;;;4.73;38.65;101169.49;1775598;80;21413;-79
2021/03/07 05:28:22;;;;;;;10.32;7.10;;;;;;;4.67;38.69;101168.08;1731356;80;21165;-78
2021/03/07 05:30:50;;;;;;;12.18;7.20;;;;;;;4.68;38.75;101163.62;1771174;80;21190;-81
2021/03/07 05:33:18;;;;;;;13.75;8.10;;;;;;;4.70;38.80;101161.73;1801385;79;21222;-77
2021/03/07 05:35:47;;;;;;;22.15;8.40;;;;;;;4.75;38.75;101162.27;1801581;79;21193;-78
2021/03/07 05:38:16;;;;;;;14.20;8.43;;;;;;;4.81;38.54;101156.08;1801705;79;21177;-77
2021/03/07 05:40:44;;;;;;;11.15;7.97;;;;;;;4.83;38.48;101166.59;1802116;79;21636;-79
2021/03/07 05:43:11;;;;;;;13.75;8.43;;;;;;;4.87;38.38;101158.79;1774246;79;21178;-79
2021/03/07 05:45:38;;;;;;;15.72;9.35;;;;;;;4.88;38.43;101159.63;1746787;81;21165;-77
2021/03/07 05:48:07;;;;;;;14.98;9.48;;;;;;;4.89;38.42;101156.02;1770023;81;21137;-82
2021/03/07 05:50:35;;;;;;;19.00;9.30;;;;;;;4.91;38.28;101157.62;1781334;79;21185;-78
2021/03/07 05:53:02;;;;;;;16.15;9.88;;;;;;;4.92;38.33;101152.69;1769520;81;21649;-78
2021/03/07 05:55:30;;;;;;;18.20;10.03;;;;;;;4.98;38.30;101151.41;1769138;81;21185;-79
2021/03/07 05:57:59;;;;;;;16.65;9.43;;;;;;;5.03;38.25;101146.63;1768858;81;21178;-76
2021/03/07 06:00:26;;;;;;;14.20;8.38;;;;;;;5.01;38.16;101148.07;1757073;81;21185;-76
2021/03/07 06:02:54;;;;;;;12.30;8.38;;;;;;;5.04;38.16;101147.88;1774166;79;21190;-79
2021/03/07 06:05:22;;;;;;;14.80;9.63;;;;;;;5.12;38.14;101147.80;1773903;79;21764;-76
2021/03/07 06:07:49;;;;;;;14.35;9.00;;;;;;;5.19;38.12;101143.78;1769030;81;21143;-79
2021/03/07 06:10:24;;;;;;;16.70;9.58;;;;;;;5.20;37.89;101144.14;1770555;80;21177;-80
2021/03/07 06:13:05;;;;;;;12.80;8.18;;;;;;;5.18;37.98;101135.41;1770249;81;21174;-76
2021/03/07 06:15:35;;;;;;;18.52;8.23;;;;;;;5.22;38.03;101134.25;1756951;81;21197;-79
2021/03/07 06:18:17;;;;;;;12.00;7.12;;;;;;;5.18;37.87;101126.13;1775313;80;21464;-77
2021/03/07 06:20:47;;;;;;;14.93;9.13;;;;;;;5.04;37.90;101126.62;1780487;80;21209;-77
2021/03/07 06:23:16;;;;;;;13.65;8.15;;;;;;;4.92;38.11;101124.81;1781335;80;21887;-82
2021/03/07 06:25:49;;;;;;;12.00;7.47;;;;;;;4.81;38.39;101120.70;1779435;80;21221;-80
2021/03/07 06:28:27;;;;;;;15.53;8.63;;;;;;;4.82;38.45;101109.16;1781223;80;21201;-78
2021/03/07 06:30:54;;;;;;;14.70;7.33;;;;;;;4.89;38.54;101117.53;1781589;80;21169;-81
2021/03/07 06:33:34;;;;;;;17.67;8.03;;;;;;;4.90;38.45;101104.14;1751785;80;21187;-78
2021/03/07 06:36:19;;;;;;;11.63;7.72;;;;;;;4.90;38.37;101094.85;1744037;81;21178;-76
2021/03/07 06:38:52;;;;;;;14.10;6.80;;;;;;;4.85;38.60;101091.67;1754853;82;21155;-78
2021/03/07 06:41:24;;;;;;;12.58;6.47;;;;;;;4.95;38.60;101082.58;1753247;82;21893;-78
2021/03/07 06:43:52;;;;;;;9.53;6.65;;;;;;;5.06;38.21;101087.53;1752012;82;21180;-78
2021/03/07 06:46:28;;;;;;;12.95;7.05;;;;;;;5.17;38.03;101080.13;1750466;82;21228;-78
2021/03/07 06:48:57;;;;;;;15.45;8.13;;;;;;;5.21;38.23;101074.13;1750869;81;21243;-82
2021/03/07 06:51:26;;;;;;;17.10;8.28;;;;;;;5.38;38.20;101067.14;1751404;82;21193;-79
2021/03/07 06:53:54;;;;;;;14.13;7.55;;;;;;;5.52;37.78;101070.98;1751072;82;21204;-78
2021/03/07 06:56:50;;;;;;;11.88;7.37;;;;;;;5.52;37.69;101064.34;1750008;82;21200;-78
2021/03/07 06:59:24;;;;;;;15.48;8.53;;;;;;;5.57;37.64;101049.39;1750241;81;21679;-75
2021/03/07 07:01:53;;;;;;;20.68;8.35;;;;;;;5.66;37.54;101050.53;1750069;82;21201;-75
2021/03/07 07:04:23;;;;;;;14.18;7.95;;;;;;;5.76;37.45;101050.22;1750606;82;21198;-77
2021/03/07 07:07:07;;;;;;;14.23;7.78;;;;;;;5.83;37.26;101044.34;1751084;82;21718;-80
2021/03/07 07:09:35;;;;;;;16.05;8.03;;;;;;;5.89;37.14;101042.19;1750224;81;21694;-77
2021/03/07 07:12:07;;;;;;;12.85;7.58;;;;;;;5.85;37.25;101028.27;1750791;82;21208;-76
2021/03/07 07:14:41;;;;;;;15.98;9.00;;;;;;;5.86;37.59;101028.66;1769726;80;21221;-75
2021/03/07 07:17:16;;;;;;;22.60;8.58;;;;;;;5.95;37.57;101021.36;1782317;80;21716;-78
2021/03/07 07:19:46;;;;;;;12.95;8.08;;;;;;;6.00;37.35;101015.21;1781369;80;21599;-77
2021/03/07 07:22:17;;;;;;;18.75;9.58;;;;;;;6.10;37.38;101016.70;1781002;80;21220;-79
2021/03/07 07:24:45;;;;;;;16.77;9.33;;;;;;;6.14;37.35;101008.86;1782920;80;21197;-74
2021/03/07 07:27:12;;;;;;;22.13;9.33;;;;;;;6.22;37.41;100998.94;1784174;80;21357;-75
2021/03/07 07:29:40;;;;;;;17.80;9.00;;;;;;;6.33;37.47;100993.66;1781797;80;21158;-79
2021/03/07 07:32:40;;;;;;;16.67;8.65;;;;;;;6.48;37.33;100986.30;1781377;80;21184;-79
2021/03/07 07:35:17;;;;;;;16.17;8.48;;;;;;;6.56;37.40;100983.41;1767345;80;21474;-80
2021/03/07 07:38:01;;;;;;;20.32;8.95;;;;;;;6.68;37.58;100983.44;1764378;80;21268;-78
2021/03/07 07:40:41;;;;;;;29.82;9.38;;;;;;;6.82;37.68;100972.55;1772140;80;21228;-77
2021/03/07 07:43:10;;;;;;;16.12;8.90;;;;;;;7.01;37.57;100970.59;1777889;80;21177;-76
2021/03/07 07:45:38;;;;;;;14.90;9.38;;;;;;;7.23;37.23;100971.90;1768741;79;21768;-78
2021/03/07 07:48:07;;;;;;;13.30;9.15;;;;;;;7.41;37.19;100962.05;1762337;81;21205;-79
2021/03/07 07:50:37;;;;;;;17.92;9.68;;;;;;;7.55;37.01;100959.94;1766437;81;21211;-78
2021/03/07 07:53:16;;;;;;;12.35;8.95;;;;;;;7.74;36.67;100955.75;1784245;79;21209;-80
2021/03/07 07:55:56;;;;;;;16.93;8.75;;;;;;;7.92;36.83;100951.54;1776670;79;21209;-78
2021/03/07 07:58:42;;;;;;;15.93;9.00;;;;;;;8.12;36.54;100953.35;1788546;79;21213;-78
2021/03/07 08:01:15;;;;;;;17.42;9.85;;;;;;;8.29;36.04;100947.08;1769318;80;21657;-77
2021/03/07 08:03:47;;;;;;;17.62;10.13;;;;;;;8.45;35.91;100933.28;1767338;81;21170;-78
2021/03/07 08:06:29;;;;;;;14.95;9.43;;;;;;;8.61;35.74;100930.48;1783458;79;21217;-77
2021/03/07 08:08:58;;;;;;;14.45;9.60;;;;;;;8.76;35.59;100924.77;1776690;79;21185;-76
2021/03/07 08:11:29;;;;;;;12.60;9.00;;;;;;;8.94;35.18;100930.32;1783455;79;21185;-78
2021/03/07 08:13:59;;;;;;;15.95;9.38;;;;;;;9.04;35.03;100922.70;1788713;79;21209;-80
2021/03/07 08:16:43;;;;;;;15.88;10.20;;;;;;;9.11;34.73;100916.31;1779654;78;21201;-80
2021/03/07 08:19:19;;;;;;;14.68;9.15;;;;;;;9.18;34.78;100924.14;1730427;81;21701;-77
2021/03/07 08:22:07;;;;;;;21.00;10.28;;;;;;;9.28;34.66;100908.12;1775913;80;22290;-76
2021/03/07 08:24:58;;;;;;;15.18;9.65;;;;;;;9.39;34.49;100906.64;1745377;80;21200;-78
2021/03/07 08:27:39;;;;;;;23.30;10.23;;;;;;;9.51;34.49;100897.50;1768921;80;21172;-79
2021/03/07 08:30:15;;;;;;;18.80;9.90;;;;;;;9.69;34.36;100892.80;1785204;79;21142;-77
2021/03/07 08:32:45;;;;;;;18.05;10.38;;;;;;;9.85;33.96;100887.69;1755824;79;21202;-76
2021/03/07 08:35:20;;;;;;;14.85;9.93;;;;;;;9.98;33.58;100873.52;1788958;79;21142;-76
2021/03/07 08:38:15;;;;;;;15.00;8.55;;;;;;;10.07;33.61;100883.36;1783921;79;21818;-78
2021/03/07 08:40:57;;;;;;;17.50;9.65;;;;;;;10.18;33.25;100862.28;1785345;79;21213;-78
2021/03/07 08:43:31;;;;;;;16.37;10.03;;;;;;;10.19;33.13;100857.27;1795161;78;21038;-77
2021/03/07 08:46:10;;;;;;;21.82;10.03;;;;;;;10.24;33.17;100856.83;1787012;79;21679;-76
2021/03/07 08:48:43;;;;;;;15.60;9.95;;;;;;;10.31;32.57;100843.22;1780112;78;21721;-78
2021/03/07 08:51:13;;;;;;;20.30;10.53;;;;;;;10.33;32.78;100843.44;1782243;79;21185;-78
2021/03/07 08:53:45;;;;;;;18.80;10.18;;;;;;;10.37;33.01;100843.99;1786974;79;21205;-77
2021/03/07 08:56:13;;;;;;;13.32;9.95;;;;;;;10.46;32.84;100832.89;1756961;81;21149;-75
2021/03/07 08:58:40;;;;;;;18.40;10.20;;;;;;;10.51;32.73;100839.48;1789762;79;21475;-77
2021/03/07 09:01:08;;;;;;;19.62;9.58;;;;;;;10.42;32.79;100833.67;1744967;79;21206;-79
2021/03/07 09:03:36;;;;;;;18.40;10.63;;;;;;;10.40;33.19;100824.94;1766357;79;21177;-75
2021/03/07 09:06:10;;;;;;;16.55;9.48;;;;;;;10.42;32.84;100825.64;1737400;81;21291;-76
2021/03/07 09:08:40;;;;;;;14.25;8.50;;;;;;;10.38;32.69;100819.73;1772543;79;21446;-75
2021/03/07 09:11:11;;;;;;;16.23;9.63;;;;;;;10.30;33.10;100799.55;1766529;80;21198;-77
2021/03/07 09:13:50;;;;;;;18.95;9.23;;;;;;;10.22;33.19;100806.13;1753508;81;21206;-76
2021/03/07 09:16:18;;;;;;;13.28;9.33;;;;;;;10.25;33.16;100807.18;1760448;80;21189;-76
2021/03/07 09:18:47;;;;;;;19.37;9.63;;;;;;;10.23;33.62;100801.61;1761615;79;21197;-79
2021/03/07 09:21:17;;;;;;;15.93;10.03;;;;;;;10.26;33.58;100794.63;1795118;79;21204;-76
2021/03/07 09:23:46;;;;;;;15.75;9.68;;;;;;;10.24;33.94;100800.61;1768067;79;21218;-78
2021/03/07 09:26:22;;;;;;;14.40;9.75;;;;;;;10.22;33.83;100794.55;1794775;79;21444;-78
2021/03/07 09:28:53;;;;;;;17.12;10.13;;;;;;;10.24;33.58;100791.24;1766094;79;21181;-75
2021/03/07 09:31:33;;;;;;;17.52;7.95;;;;;;;10.19;33.74;100788.17;1789007;79;21202;-80
2021/03/07 09:34:03;;;;;;;15.63;8.90;;;;;;;10.19;33.68;100790.84;1766947;81;21179;-76
2021/03/07 09:36:36;;;;;;;16.48;9.60;;;;;;;10.15;33.80;100783.09;1774750;79;21586;-79
2021/03/07 09:39:08;;;;;;;13.85;10.15;;;;;;;10.11;34.21;100773.67;1785108;79;21735;-77
2021/03/07 09:41:43;;;;;;;18.75;11.25;;;;;;;10.14;34.09;100772.55;1758752;79;21580;-78
2021/03/07 09:44:20;;;;;;;18.05;11.10;;;;;;;10.15;34.04;100770.22;1760784;80;21129;-76
2021/03/07 09:46:53;;;;;;;22.48;10.90;;;;;;;10.19;34.17;100770.27;1777308;79;21187;-78
2021/03/07 09:49:23;;;;;;;19.23;10.88;;;;;;;10.23;34.16;100782.37;1768471;81;21194;-75
2021/03/07 09:51:52;;;;;;;16.80;10.60;;;;;;;10.15;34.17;100769.72;1770542;79;21162;-78
2021/03/07 09:54:20;;;;;;;19.77;10.98;;;;;;;10.15;34.50;100765.70;1787714;79;21170;-76
2021/03/07 09:56:48;;;;;;;15.68;10.75;;;;;;;10.19;34.24;100755.55;1770047;81;21182;-74
2021/03/07 09:59:30;;;;;;;21.73;11.90;;;;;;;10.26;34.46;100756.66;1771463;80;21209;-79
2021/03/07 10:02:01;;;;;;;24.43;12.10;;;;;;;10.30;34.06;100761.22;1781927;79;21176;-78
2021/03/07 10:04:41;;;;;;;23.25;12.13;;;;;;;10.28;34.25;100762.72;1777710;79;21363;-76
2021/03/07 10:07:18;;;;;;;16.40;10.55;;;;;;;10.29;34.65;100751.02;1743015;80;21176;-77
2021/03/07 10:10:11;;;;;;;20.20;12.68;;;;;;;10.38;34.52;100757.31;1793231;79;21361;-76
2021/03/07 10:12:59;;;;;;;20.55;9.58;;;;;;;10.45;34.34;100746.36;1789639;79;21161;-76
2021/03/07 10:15:37;;;;;;;17.15;10.80;;;;;;;10.53;34.72;100729.02;1738231;79;21447;-75
2021/03/07 10:18:16;;;;;;;21.48;11.05;;;;;;;10.60;34.41;100738.14;1763959;81;21214;-76
2021/03/07 10:20:50;;;;;;;19.15;10.10;;;;;;;10.65;34.24;100736.34;1735698;82;21229;-77
2021/03/07 10:23:19;;;;;;;23.02;11.00;;;;;;;10.68;34.05;100721.82;1766671;81;21229;-79
2021/03/07 10:25:47;;;;;;;21.52;11.20;;;;;;;10.72;34.45;100721.83;1743424;81;21541;-78
2021/03/07 10:28:26;;;;;;;17.02;10.82;;;;;;;10.77;34.03;100720.41;1732803;82;21704;-78
2021/03/07 10:31:13;;;;;;;19.45;11.05;;;;;;;10.81;34.06;100720.91;1766577;81;21198;-76
2021/03/07 10:33:41;;;;;;;15.80;9.90;;;;;;;10.84;33.88;100721.95;1767058;81;21194;-77
2021/03/07 10:36:20;;;;;;;15.83;9.30;;;;;;;10.89;33.79;100714.30;1758772;81;21118;-76
2021/03/07 10:38:51;;;;;;;12.40;8.13;;;;;;;10.90;33.54;100710.61;1768908;79;21181;-77
2021/03/07 10:41:31;;;;;;;12.93;9.45;;;;;;;10.98;33.48;100707.17;1767722;79;21181;-75
2021/03/07 10:44:03;;;;;;;26.20;9.05;;;;;;;11.00;33.09;100707.87;1779442;78;21238;-78
2021/03/07 10:46:36;;;;;;;23.30;9.13;;;;;;;11.03;32.75;100703.02;1785605;78;21055;-76
2021/03/07 10:49:07;;;;;;;19.70;7.65;;;;;;;10.99;32.89;100700.34;1782861;79;21174;-77
2021/03/07 10:51:36;;;;;;;15.83;7.67;;;;;;;10.92;32.51;100707.30;1763148;79;21189;-79
2021/03/07 10:54:04;;;;;;;11.35;8.00;;;;;;;10.83;32.53;100692.14;1779310;79;21660;-79
2021/03/07 10:56:33;;;;;;;13.28;7.50;;;;;;;10.83;32.70;100692.14;1796732;79;21166;-76
2021/03/07 10:59:02;;;;;;;14.05;7.92;;;;;;;10.83;32.50;100690.80;1782970;79;21640;-78
2021/03/07 11:01:29;;;;;;;14.30;8.55;;;;;;;10.79;32.46;100677.37;1788827;79;21181;-78
2021/03/07 11:03:57;;;;;;;11.97;8.48;;;;;;;10.78;32.32;100679.21;1786964;79;21184;-76
2021/03/07 11:06:25;;;;;;;14.25;7.70;;;;;;;10.76;32.35;100669.12;1781679;79;21209;-79
2021/03/07 11:08:52;;;;;;;14.58;8.38;;;;;;;10.71;32.46;100672.77;1790470;79;21165;-79
2021/03/07 11:11:22;;;;;;;15.65;7.65;;;;;;;10.68;32.45;100658.36;1782477;79;21193;-75
2021/03/07 11:13:50;;;;;;;12.15;7.60;;;;;;;10.65;33.13;100656.81;1779411;79;21182;-77
2021/03/07 11:16:18;;;;;;;11.33;7.62;;;;;;;10.61;32.95;100652.76;1788875;79;21165;-76
2021/03/07 11:18:46;;;;;;;13.43;7.30;;;;;;;10.63;32.81;100663.34;1787134;79;21197;-76
2021/03/07 11:21:14;;;;;;;15.63;6.92;;;;;;;10.64;32.97;100639.57;1781075;79;21154;-75
2021/03/07 11:23:41;;;;;;;17.00;7.40;;;;;;;10.61;33.17;100636.69;1790048;79;21209;-75
2021/03/07 11:26:10;;;;;;;10.23;6.85;;;;;;;10.61;33.10;100635.35;1783551;79;21229;-77
2021/03/07 11:28:38;;;;;;;10.55;6.87;;;;;;;10.59;32.80;100638.69;1783524;79;21205;-77
2021/03/07 11:31:05;;;;;;;17.30;8.45;;;;;;;10.58;33.00;100634.34;1753335;79;21245;-79
2021/03/07 11:33:35;;;;;;;22.05;7.70;;;;;;;10.53;32.84;100641.13;1780492;79;21213;-76
2021/03/07 11:36:03;;;;;;;14.58;7.05;;;;;;;10.46;33.04;100631.54;1787088;79;21197;-78
2021/03/07 11:38:31;;;;;;;19.87;7.40;;;;;;;10.36;33.28;100637.48;1790580;79;21628;-78